createdAt,value
2023-05-21T00:02:45.481Z,93.74
2023-05-21T00:05:31.540Z,90.25
2023-05-21T00:08:17.491Z,89.44
2023-05-21T00:11:03.494Z,89.47
2023-05-21T00:13:49.377Z,87.73
2023-05-21T00:16:35.310Z,89.03
2023-05-21T00:19:21.538Z,89.58
2023-05-21T00:22:07.716Z,90.46
2023-05-21T00:24:53.805Z,86.86
2023-05-21T00:27:39.713Z,86.02
2023-05-21T00:30:25.789Z,90.22
2023-05-21T00:33:11.712Z,93.55
2023-05-21T00:35:57.565Z,91.88
2023-05-21T00:38:43.610Z,90.64
2023-05-21T00:41:29.573Z,96.61
2023-05-21T00:44:15.642Z,97.38
2023-05-21T00:47:01.619Z,88.70
2023-05-21T00:49:47.654Z,88.72
2023-05-21T00:52:33.475Z,84.82
2023-05-21T00:55:21.506Z,86.60
2023-05-21T00:58:07.433Z,83.97
2023-05-21T01:00:53.380Z,85.21
2023-05-21T01:03:39.394Z,82.10
2023-05-21T01:06:25.313Z,78.09
2023-05-21T01:09:11.388Z,74.09
2023-05-21T01:11:57.336Z,73.73
2023-05-21T01:14:43.056Z,76.28
2023-05-21T01:17:28.984Z,74.51
2023-05-21T01:20:16.808Z,75.44
2023-05-21T01:23:02.685Z,73.15
2023-05-21T01:25:48.558Z,73.54
2023-05-21T01:28:34.473Z,74.78
2023-05-21T01:31:20.498Z,75.59
2023-05-21T01:34:06.636Z,73.86
2023-05-21T01:36:52.977Z,74.31
2023-05-21T01:39:38.788Z,78.09
2023-05-21T01:42:24.832Z,81.24
2023-05-21T01:45:10.730Z,76.38
2023-05-21T01:47:56.725Z,78.65
2023-05-21T01:50:42.812Z,82.37
2023-05-21T01:53:28.859Z,83.64
2023-05-21T01:56:14.812Z,84.63
2023-05-21T01:59:00.672Z,83.05
2023-05-21T02:01:46.667Z,77.41
2023-05-21T02:04:32.944Z,78.37
2023-05-21T02:07:18.900Z,81.16
2023-05-21T02:10:04.813Z,78.82
2023-05-21T02:12:51.139Z,76.53
2023-05-21T02:15:37.362Z,74.18
2023-05-21T02:18:23.851Z,76.39
2023-05-21T02:21:09.667Z,75.12
2023-05-21T02:23:55.672Z,72.39
2023-05-21T02:26:41.706Z,73.82
2023-05-21T02:29:27.676Z,71.90
2023-05-21T02:32:14.034Z,70.75
2023-05-21T02:34:59.908Z,70.94
2023-05-21T02:37:45.750Z,71.49
2023-05-21T02:40:31.551Z,71.39
2023-05-21T02:43:17.363Z,70.72
2023-05-21T02:46:03.450Z,69.29
2023-05-21T02:48:49.679Z,70.37
2023-05-21T02:51:35.889Z,72.92
2023-05-21T02:54:21.822Z,69.33
2023-05-21T02:57:07.861Z,67.56
2023-05-21T02:59:53.902Z,70.88
2023-05-21T03:02:39.930Z,72.69
2023-05-21T03:05:26.151Z,72.95
2023-05-21T03:08:14.218Z,69.94
2023-05-21T03:11:00.286Z,72.21
2023-05-21T03:13:46.252Z,70.50
2023-05-21T03:16:32.340Z,70.83
2023-05-21T03:19:18.381Z,69.10
2023-05-21T03:22:04.225Z,72.75
2023-05-21T03:24:50.240Z,73.39
2023-05-21T03:27:36.131Z,73.73
2023-05-21T03:30:22.027Z,77.91
2023-05-21T03:33:08.002Z,78.44
2023-05-21T03:35:54.344Z,78.79
2023-05-21T03:38:40.318Z,79.33
2023-05-21T03:41:26.344Z,76.04
2023-05-21T03:44:12.275Z,74.12
2023-05-21T03:46:58.322Z,76.17
2023-05-21T03:49:44.221Z,76.21
2023-05-21T03:52:30.241Z,76.87
2023-05-21T03:55:16.202Z,77.16
2023-05-21T03:58:02.098Z,77.83
2023-05-21T04:00:48.206Z,77.98
2023-05-21T04:03:34.399Z,72.65
2023-05-21T04:06:20.798Z,69.33
2023-05-21T04:09:06.952Z,67.48
2023-05-21T04:11:52.977Z,67.28
2023-05-21T04:14:38.912Z,68.12
2023-05-21T04:17:24.857Z,67.61
2023-05-21T04:20:10.724Z,67.77
2023-05-21T04:22:56.839Z,67.41
2023-05-21T04:25:42.891Z,69.12
2023-05-21T04:28:28.962Z,68.27
2023-05-21T04:31:15.382Z,68.94
2023-05-21T04:34:01.337Z,67.96
2023-05-21T04:36:47.206Z,67.74
2023-05-21T04:39:33.211Z,66.63
2023-05-21T04:42:19.128Z,68.52
2023-05-21T04:45:05.179Z,67.94
2023-05-21T04:47:51.138Z,68.55
2023-05-21T04:50:37.285Z,66.97
2023-05-21T04:53:23.368Z,67.96
2023-05-21T04:56:09.176Z,67.41
2023-05-21T04:58:55.065Z,68.51
2023-05-21T05:01:41.021Z,68.11
2023-05-21T05:04:26.842Z,65.79
2023-05-21T05:07:12.852Z,63.63
2023-05-21T05:09:58.848Z,62.56
2023-05-21T05:12:44.774Z,63.19
2023-05-21T05:15:30.778Z,61.34
2023-05-21T05:18:17.855Z,61.26
2023-05-21T05:21:05.692Z,59.44
2023-05-21T05:23:51.657Z,57.92
2023-05-21T05:26:37.506Z,55.84
2023-05-21T05:29:23.282Z,54.75
2023-05-21T05:32:09.257Z,54.83
2023-05-21T05:34:55.197Z,55.18
2023-05-21T05:37:41.161Z,53.43
2023-05-21T05:40:27.025Z,53.46
2023-05-21T05:43:12.883Z,55.13
2023-05-21T05:45:58.797Z,55.27
2023-05-21T05:48:44.653Z,56.06
2023-05-21T05:51:30.611Z,55.63
2023-05-21T05:54:16.573Z,55.40
2023-05-21T05:57:02.368Z,54.34
2023-05-21T05:59:48.431Z,54.59
2023-05-21T06:02:34.473Z,53.27
2023-05-21T06:05:20.617Z,51.73
2023-05-21T06:08:06.611Z,51.14
2023-05-21T06:10:52.444Z,50.71
2023-05-21T06:13:38.359Z,52.05
2023-05-21T06:16:24.377Z,54.70
2023-05-21T06:19:10.249Z,55.82
2023-05-21T06:21:56.286Z,58.07
2023-05-21T06:24:42.247Z,61.68
2023-05-21T06:27:28.081Z,60.88
2023-05-21T06:30:14.039Z,60.96
2023-05-21T06:33:00.138Z,60.54
2023-05-21T06:35:46.390Z,58.94
2023-05-21T06:38:32.463Z,60.71
2023-05-21T06:41:18.298Z,60.03
2023-05-21T06:44:04.382Z,62.07
2023-05-21T06:46:50.310Z,60.71
2023-05-21T06:49:36.114Z,59.22
2023-05-21T06:52:22.176Z,59.82
2023-05-21T06:55:08.085Z,58.45
2023-05-21T06:57:54.034Z,57.14
2023-05-21T07:00:39.919Z,57.99
2023-05-21T07:03:25.904Z,59.88
2023-05-21T07:06:12.345Z,59.78
2023-05-21T07:08:58.433Z,59.57
2023-05-21T07:11:44.391Z,58.90
2023-05-21T07:14:32.238Z,56.56
2023-05-21T07:17:18.267Z,55.23
2023-05-21T07:20:04.197Z,55.19
2023-05-21T07:22:50.196Z,54.78
2023-05-21T07:25:36.333Z,57.19
2023-05-21T07:28:22.411Z,58.82
2023-05-21T07:31:08.468Z,58.99
2023-05-21T07:33:54.826Z,59.11
2023-05-21T07:36:40.724Z,58.66
2023-05-21T07:39:27.009Z,59.13
2023-05-21T07:42:12.796Z,58.29
2023-05-21T07:44:58.817Z,56.91
2023-05-21T07:47:44.681Z,57.70
2023-05-21T07:50:30.747Z,56.42
2023-05-21T07:53:16.736Z,54.27
2023-05-21T07:56:02.722Z,54.67
2023-05-21T07:58:48.756Z,53.69
2023-05-21T08:01:34.794Z,56.10
2023-05-21T08:04:20.890Z,55.74
2023-05-21T08:07:06.778Z,54.50
2023-05-21T08:09:52.687Z,55.86
2023-05-21T08:12:38.595Z,53.98
2023-05-21T08:15:24.612Z,56.61
2023-05-21T08:18:10.587Z,56.80
2023-05-21T08:20:57.083Z,57.38
2023-05-21T08:23:43.146Z,57.89
2023-05-21T08:26:28.946Z,58.85
2023-05-21T08:29:14.905Z,57.23
2023-05-21T08:32:00.816Z,56.64
2023-05-21T08:34:46.702Z,57.78
2023-05-21T08:37:32.602Z,58.31
2023-05-21T08:40:18.328Z,56.23
2023-05-21T08:43:04.338Z,59.03
2023-05-21T08:45:50.378Z,58.78
2023-05-21T08:48:36.308Z,59.88
2023-05-21T08:51:22.266Z,61.34
2023-05-21T08:54:08.419Z,60.26
2023-05-21T08:56:54.403Z,61.00
2023-05-21T08:59:40.399Z,61.17
2023-05-21T09:02:26.247Z,59.86
2023-05-21T09:05:12.216Z,57.21
2023-05-21T09:07:58.317Z,54.04
2023-05-21T09:10:44.282Z,53.51
2023-05-21T09:13:30.297Z,54.54
2023-05-21T09:16:16.242Z,56.40
2023-05-21T09:19:04.322Z,55.10
2023-05-21T09:21:50.859Z,54.90
2023-05-21T09:24:36.688Z,56.63
2023-05-21T09:27:22.628Z,60.24
2023-05-21T09:30:08.690Z,57.61
2023-05-21T09:32:54.571Z,57.23
2023-05-21T09:35:40.595Z,58.57
2023-05-21T09:38:26.477Z,57.70
2023-05-21T09:41:12.326Z,55.84
2023-05-21T09:43:58.296Z,57.95
2023-05-21T09:46:44.355Z,59.73
2023-05-21T09:49:30.438Z,61.01
2023-05-21T09:52:16.424Z,60.31
2023-05-21T09:55:02.491Z,58.13
2023-05-21T09:57:50.490Z,55.06
2023-05-21T10:00:37.037Z,57.52
2023-05-21T10:03:23.348Z,58.89
2023-05-21T10:06:09.428Z,55.63
2023-05-21T10:08:55.534Z,56.36
2023-05-21T10:11:41.538Z,57.55
2023-05-21T10:14:27.598Z,58.96
2023-05-21T10:17:13.442Z,59.88
2023-05-21T10:19:59.233Z,60.00
2023-05-21T10:22:45.190Z,58.85
2023-05-21T10:25:31.101Z,57.47
2023-05-21T10:28:17.333Z,60.74
2023-05-21T10:31:03.337Z,60.08
2023-05-21T10:33:49.194Z,63.62
2023-05-21T10:36:35.078Z,62.16
2023-05-21T10:39:21.037Z,62.80
2023-05-21T10:42:07.014Z,61.71
2023-05-21T10:44:53.023Z,61.76
2023-05-21T10:47:40.964Z,62.75
2023-05-21T10:50:26.869Z,62.09
2023-05-21T10:53:12.949Z,60.75
2023-05-21T10:55:58.806Z,60.79
2023-05-21T10:58:44.767Z,61.09
2023-05-21T11:01:30.781Z,57.75
2023-05-21T11:04:16.700Z,56.18
2023-05-21T11:07:02.636Z,57.46
2023-05-21T11:09:48.582Z,59.81
2023-05-21T11:12:34.477Z,59.28
2023-05-21T11:15:20.476Z,58.29
2023-05-21T11:18:06.319Z,59.66
2023-05-21T11:20:52.424Z,59.27
2023-05-21T11:23:38.482Z,59.46
2023-05-21T11:26:24.365Z,61.64
2023-05-21T11:29:10.232Z,60.42
2023-05-21T11:31:56.139Z,59.17
2023-05-21T11:34:42.010Z,58.18
2023-05-21T11:37:28.016Z,56.92
2023-05-21T11:40:13.902Z,57.43
2023-05-21T11:42:59.945Z,58.06
2023-05-21T11:45:45.949Z,58.75
2023-05-21T11:48:32.522Z,58.95
2023-05-21T11:51:18.650Z,58.39
2023-05-21T11:54:04.591Z,56.96
2023-05-21T11:56:50.656Z,57.42
2023-05-21T11:59:36.653Z,55.61
2023-05-21T12:02:22.588Z,53.99
2023-05-21T12:05:09.749Z,54.93
2023-05-21T12:07:56.790Z,54.38
2023-05-21T12:10:44.379Z,56.56
2023-05-21T12:13:31.572Z,55.67
2023-05-21T12:16:17.656Z,55.16
2023-05-21T12:19:03.916Z,53.30
2023-05-21T12:21:49.929Z,54.58
2023-05-21T12:24:35.960Z,52.89
2023-05-21T12:27:21.909Z,56.16
2023-05-21T12:30:07.977Z,57.99
2023-05-21T12:32:54.006Z,60.60
2023-05-21T12:35:40.390Z,61.47
2023-05-21T12:38:26.257Z,59.48
2023-05-21T12:41:12.084Z,57.58
2023-05-21T12:43:58.013Z,54.61
2023-05-21T12:46:43.938Z,55.37
2023-05-21T12:49:29.815Z,53.86
2023-05-21T12:52:15.732Z,55.11
2023-05-21T12:55:01.796Z,55.49
2023-05-21T12:57:49.758Z,54.91
2023-05-21T13:00:36.095Z,55.50
2023-05-21T13:03:22.543Z,58.18
2023-05-21T13:06:08.520Z,57.74
2023-05-21T13:08:54.425Z,61.63
2023-05-21T13:11:40.458Z,56.44
2023-05-21T13:14:26.429Z,56.23
2023-05-21T13:17:12.318Z,56.84
2023-05-21T13:19:58.277Z,55.35
2023-05-21T13:22:44.386Z,56.16
2023-05-21T13:25:30.263Z,53.90
2023-05-21T13:28:16.265Z,55.37
2023-05-21T13:31:02.255Z,55.44
2023-05-21T13:33:48.253Z,53.75
2023-05-21T13:36:34.267Z,51.69
2023-05-21T13:39:20.238Z,48.49
2023-05-21T13:42:06.106Z,51.08
2023-05-21T13:44:52.070Z,49.27
2023-05-21T13:47:40.278Z,49.37
2023-05-21T13:50:26.547Z,46.63
2023-05-21T13:53:12.613Z,48.10
2023-05-21T13:55:58.536Z,47.63
2023-05-21T13:58:44.338Z,49.63
2023-05-21T14:01:30.330Z,50.25
2023-05-21T14:04:16.600Z,50.07
2023-05-21T14:07:02.546Z,48.64
2023-05-21T14:09:48.461Z,47.68
2023-05-21T14:12:34.301Z,49.05
2023-05-21T14:15:20.349Z,48.97
2023-05-21T14:18:06.193Z,45.33
2023-05-21T14:20:52.091Z,48.90
2023-05-21T14:23:38.108Z,51.58
2023-05-21T14:26:24.109Z,51.63
2023-05-21T14:29:10.122Z,50.33
2023-05-21T14:31:56.127Z,49.42
2023-05-21T14:34:42.015Z,51.82
2023-05-21T14:37:27.920Z,52.72
2023-05-21T14:40:13.813Z,53.76
2023-05-21T14:42:59.593Z,49.65
2023-05-21T14:45:46.616Z,49.33
2023-05-21T14:48:32.765Z,48.89
2023-05-21T14:51:19.051Z,44.94
2023-05-21T14:54:04.948Z,47.69
2023-05-21T14:56:50.840Z,48.62
2023-05-21T14:59:36.738Z,47.52
2023-05-21T15:02:22.770Z,45.54
2023-05-21T15:05:08.603Z,47.18
2023-05-21T15:07:54.573Z,46.86
2023-05-21T15:10:40.462Z,49.93
2023-05-21T15:13:26.447Z,49.69
2023-05-21T15:16:12.510Z,48.78
2023-05-21T15:18:58.412Z,48.94
2023-05-21T15:21:44.655Z,49.20
2023-05-21T15:24:30.620Z,48.32
2023-05-21T15:27:16.541Z,43.88
2023-05-21T15:30:02.547Z,43.84
2023-05-21T15:32:48.862Z,45.82
2023-05-21T15:35:35.084Z,44.55
2023-05-21T15:38:21.334Z,44.54
2023-05-21T15:41:07.181Z,50.93
2023-05-21T15:43:53.077Z,51.84
2023-05-21T15:46:39.061Z,52.50
2023-05-21T15:49:25.252Z,53.50
2023-05-21T15:52:11.127Z,52.56
2023-05-21T15:54:57.083Z,53.06
2023-05-21T15:57:42.981Z,54.50
2023-05-21T16:00:28.880Z,52.90
2023-05-21T16:03:15.184Z,54.61
2023-05-21T16:06:01.750Z,54.45
2023-05-21T16:08:47.757Z,52.93
2023-05-21T16:11:33.745Z,51.88
2023-05-21T16:14:19.589Z,50.91
2023-05-21T16:17:05.670Z,49.83
2023-05-21T16:19:51.829Z,49.58
2023-05-21T16:22:37.697Z,52.16
2023-05-21T16:25:23.504Z,50.37
2023-05-21T16:28:09.437Z,49.37
2023-05-21T16:30:55.370Z,50.78
2023-05-21T16:33:41.224Z,50.65
2023-05-21T16:36:27.185Z,49.28
2023-05-21T16:39:12.986Z,46.89
2023-05-21T16:41:58.842Z,49.06
2023-05-21T16:44:45.062Z,47.02
2023-05-21T16:47:31.026Z,48.11
2023-05-21T16:50:16.919Z,47.88
2023-05-21T16:53:02.831Z,49.49
2023-05-21T16:55:48.549Z,51.08
2023-05-21T16:58:34.647Z,50.00
2023-05-21T17:01:20.544Z,46.94
2023-05-21T17:04:06.872Z,47.64
2023-05-21T17:06:53.098Z,50.58
2023-05-21T17:09:38.983Z,48.72
2023-05-21T17:12:24.909Z,50.71
2023-05-21T17:15:10.892Z,50.51
2023-05-21T17:17:58.648Z,52.19
2023-05-21T17:20:44.991Z,52.71
2023-05-21T17:23:30.940Z,48.49
2023-05-21T17:26:16.971Z,51.06
2023-05-21T17:29:02.869Z,52.56
2023-05-21T17:31:48.902Z,53.11
2023-05-21T17:34:35.144Z,53.99
2023-05-21T17:37:21.076Z,51.89
2023-05-21T17:40:06.860Z,52.12
2023-05-21T17:42:52.898Z,49.29
2023-05-21T17:45:38.981Z,49.20
2023-05-21T17:48:25.058Z,47.94
2023-05-21T17:51:10.970Z,47.85
2023-05-21T17:53:56.844Z,46.32
2023-05-21T17:56:45.538Z,46.48
2023-05-21T17:59:32.362Z,45.91
2023-05-21T18:02:18.201Z,45.50
2023-05-21T18:05:04.263Z,44.89
2023-05-21T18:07:50.054Z,44.99
2023-05-21T18:10:35.928Z,45.26
2023-05-21T18:13:21.866Z,44.86
2023-05-21T18:16:07.904Z,44.58
2023-05-21T18:18:53.854Z,44.33
2023-05-21T18:21:39.862Z,44.72
2023-05-21T18:24:25.826Z,43.97
2023-05-21T18:27:11.767Z,51.10
2023-05-21T18:29:57.788Z,51.28
2023-05-21T18:32:43.904Z,53.67
2023-05-21T18:35:29.974Z,55.83
2023-05-21T18:38:15.984Z,55.71
2023-05-21T18:41:01.859Z,54.21
2023-05-21T18:43:47.795Z,55.09
2023-05-21T18:46:33.708Z,55.41
2023-05-21T18:49:19.589Z,55.10
2023-05-21T18:52:05.528Z,54.15
2023-05-21T18:54:51.487Z,54.15
2023-05-21T18:57:37.381Z,53.82
2023-05-21T19:00:23.294Z,56.56
2023-05-21T19:03:09.106Z,59.08
2023-05-21T19:05:55.181Z,61.27
2023-05-21T19:08:41.079Z,63.15
2023-05-21T19:11:26.997Z,63.99
2023-05-21T19:14:12.901Z,65.11
2023-05-21T19:16:58.742Z,64.10
2023-05-21T19:19:44.750Z,63.38
2023-05-21T19:22:30.755Z,63.51
2023-05-21T19:25:16.767Z,64.32
2023-05-21T19:28:02.792Z,64.29
2023-05-21T19:30:48.710Z,64.96
2023-05-21T19:33:34.695Z,65.33
2023-05-21T19:36:21.048Z,65.43
2023-05-21T19:39:06.840Z,64.05
2023-05-21T19:41:52.897Z,62.16
2023-05-21T19:44:38.898Z,60.62
2023-05-21T19:47:24.727Z,59.92
2023-05-21T19:50:10.877Z,59.20
2023-05-21T19:52:56.714Z,63.50
2023-05-21T19:55:42.674Z,66.71
2023-05-21T19:58:28.601Z,66.00
2023-05-21T20:01:14.600Z,64.15
2023-05-21T20:04:00.709Z,65.20
2023-05-21T20:06:46.890Z,71.65
2023-05-21T20:09:32.794Z,73.39
2023-05-21T20:12:18.699Z,75.02
2023-05-21T20:15:04.606Z,76.11
2023-05-21T20:17:50.619Z,74.54
2023-05-21T20:20:37.167Z,73.58
2023-05-21T20:23:23.214Z,70.38
2023-05-21T20:26:09.222Z,69.35
2023-05-21T20:28:55.217Z,74.53
2023-05-21T20:31:41.082Z,74.84
2023-05-21T20:34:27.184Z,74.58
2023-05-21T20:37:13.442Z,74.64
2023-05-21T20:39:59.301Z,73.86
2023-05-21T20:42:45.319Z,77.27
2023-05-21T20:45:31.211Z,76.48
2023-05-21T20:48:17.130Z,78.29
2023-05-21T20:51:03.202Z,84.83
2023-05-21T20:53:49.080Z,87.70
2023-05-21T20:56:42.312Z,89.78
2023-05-21T20:59:29.125Z,93.68
2023-05-21T21:02:15.111Z,95.66
2023-05-21T21:05:01.117Z,96.83
2023-05-21T21:07:47.087Z,95.14
2023-05-21T21:10:33.009Z,95.50
2023-05-21T21:13:18.882Z,98.30
2023-05-21T21:16:04.822Z,98.23
2023-05-21T21:18:50.662Z,96.78
2023-05-21T21:21:38.159Z,98.32
2023-05-21T21:24:24.017Z,99.13
2023-05-21T21:27:12.058Z,99.06
2023-05-21T21:29:58.248Z,98.54
2023-05-21T21:32:44.311Z,95.67
2023-05-21T21:35:30.091Z,92.54
2023-05-21T21:38:15.961Z,90.39
2023-05-21T21:41:01.820Z,91.22
2023-05-21T21:43:47.888Z,90.68
2023-05-21T21:46:34.100Z,91.17
2023-05-21T21:49:20.110Z,92.42
2023-05-21T21:52:06.110Z,95.03
2023-05-21T21:54:52.187Z,95.86
2023-05-21T21:57:40.118Z,93.67
2023-05-21T22:00:25.988Z,93.74
2023-05-21T22:03:14.454Z,91.63
2023-05-21T22:06:00.933Z,88.85
2023-05-21T22:08:47.039Z,88.60
2023-05-21T22:11:33.299Z,88.21
2023-05-21T22:14:19.078Z,86.89
2023-05-21T22:17:05.156Z,82.99
2023-05-21T22:19:51.238Z,79.92
2023-05-21T22:22:36.978Z,77.21
2023-05-21T22:25:22.878Z,74.93
2023-05-21T22:28:08.874Z,75.92
2023-05-21T22:30:54.760Z,74.77
2023-05-21T22:33:40.763Z,75.53
2023-05-21T22:36:26.650Z,76.59
2023-05-21T22:39:12.678Z,77.04
2023-05-21T22:41:58.626Z,74.38
2023-05-21T22:44:44.449Z,73.14
2023-05-21T22:47:30.476Z,70.47
2023-05-21T22:50:16.347Z,68.19
2023-05-21T22:53:02.411Z,66.71
2023-05-21T22:55:48.328Z,65.89
2023-05-21T22:58:36.265Z,68.55
2023-05-21T23:01:22.381Z,70.94
2023-05-21T23:04:08.340Z,73.50
2023-05-21T23:06:54.169Z,73.95
2023-05-21T23:09:40.080Z,74.73
2023-05-21T23:12:25.966Z,74.30
2023-05-21T23:15:11.847Z,75.63
2023-05-21T23:17:58.009Z,75.92
2023-05-21T23:20:43.947Z,77.27
2023-05-21T23:23:29.888Z,78.79
2023-05-21T23:26:15.952Z,77.72
2023-05-21T23:29:01.764Z,74.37
2023-05-21T23:31:47.699Z,71.67
2023-05-21T23:34:33.517Z,70.42
2023-05-21T23:37:19.432Z,69.55
2023-05-21T23:40:05.508Z,71.07
2023-05-21T23:42:51.369Z,69.15
2023-05-21T23:45:37.341Z,67.23
2023-05-21T23:48:23.507Z,65.40
2023-05-21T23:51:09.421Z,64.72
2023-05-21T23:53:55.293Z,68.78
2023-05-21T23:56:41.307Z,69.55
2023-05-21T23:59:27.111Z,69.73
